sensor_id;sensor_type;location;lat;lon;timestamp;P1;durP1;ratioP1;P2;durP2;ratioP2
51738;SDS011;37815;52.692;6.226;2023-02-28T00:03:27;2.38;;;1.15;;
51738;SDS011;37815;52.692;6.226;2023-02-28T00:08:27;1.50;;;1.20;;
51738;SDS011;37815;52.692;6.226;2023-02-28T00:13:28;4.97;;;1.20;;
51738;SDS011;37815;52.692;6.226;2023-02-28T00:18:29;2.03;;;1.02;;
51738;SDS011;37815;52.692;6.226;2023-02-28T00:23:29;2.17;;;1.15;;
51738;SDS011;37815;52.692;6.226;2023-02-28T00:28:30;1.50;;;1.10;;
51738;SDS011;37815;52.692;6.226;2023-02-28T00:33:31;1.75;;;1.10;;
51738;SDS011;37815;52.692;6.226;2023-02-28T00:38:31;2.50;;;1.20;;
51738;SDS011;37815;52.692;6.226;2023-02-28T00:43:33;2.63;;;1.00;;
51738;SDS011;37815;52.692;6.226;2023-02-28T00:48:35;1.98;;;1.13;;
51738;SDS011;37815;52.692;6.226;2023-02-28T00:53:35;1.33;;;0.90;;
51738;SDS011;37815;52.692;6.226;2023-02-28T00:58:36;2.47;;;0.90;;
51738;SDS011;37815;52.692;6.226;2023-02-28T01:03:37;1.80;;;1.25;;
51738;SDS011;37815;52.692;6.226;2023-02-28T01:08:38;2.47;;;0.95;;
51738;SDS011;37815;52.692;6.226;2023-02-28T01:13:39;2.47;;;1.40;;
51738;SDS011;37815;52.692;6.226;2023-02-28T01:18:39;2.08;;;1.50;;
51738;SDS011;37815;52.692;6.226;2023-02-28T01:23:40;1.63;;;0.90;;
51738;SDS011;37815;52.692;6.226;2023-02-28T01:28:41;1.10;;;0.80;;
51738;SDS011;37815;52.692;6.226;2023-02-28T01:33:42;2.17;;;1.10;;
51738;SDS011;37815;52.692;6.226;2023-02-28T01:38:43;1.90;;;1.00;;
51738;SDS011;37815;52.692;6.226;2023-02-28T01:48:46;2.40;;;0.93;;
51738;SDS011;37815;52.692;6.226;2023-02-28T01:53:53;1.60;;;1.10;;
51738;SDS011;37815;52.692;6.226;2023-02-28T01:58:58;2.22;;;0.90;;
51738;SDS011;37815;52.692;6.226;2023-02-28T02:04:00;2.00;;;1.25;;
51738;SDS011;37815;52.692;6.226;2023-02-28T02:09:02;1.33;;;0.90;;
51738;SDS011;37815;52.692;6.226;2023-02-28T02:19:37;1.90;;;1.27;;
51738;SDS011;37815;52.692;6.226;2023-02-28T02:30:22;3.80;;;1.20;;
51738;SDS011;37815;52.692;6.226;2023-02-28T02:40:49;1.38;;;0.90;;
51738;SDS011;37815;52.692;6.226;2023-02-28T02:46:06;2.25;;;1.17;;
51738;SDS011;37815;52.692;6.226;2023-02-28T02:56:21;1.60;;;0.98;;
51738;SDS011;37815;52.692;6.226;2023-02-28T03:01:25;1.77;;;1.10;;
51738;SDS011;37815;52.692;6.226;2023-02-28T03:06:29;1.92;;;1.15;;
51738;SDS011;37815;52.692;6.226;2023-02-28T03:11:29;1.38;;;1.02;;
51738;SDS011;37815;52.692;6.226;2023-02-28T03:26:58;3.70;;;1.30;;
51738;SDS011;37815;52.692;6.226;2023-02-28T03:37:42;2.03;;;1.30;;
51738;SDS011;37815;52.692;6.226;2023-02-28T03:42:45;2.03;;;1.08;;
51738;SDS011;37815;52.692;6.226;2023-02-28T03:47:51;2.03;;;1.20;;
51738;SDS011;37815;52.692;6.226;2023-02-28T03:52:58;3.78;;;1.45;;
51738;SDS011;37815;52.692;6.226;2023-02-28T04:03:51;2.13;;;1.30;;
51738;SDS011;37815;52.692;6.226;2023-02-28T04:08:55;2.53;;;1.40;;
51738;SDS011;37815;52.692;6.226;2023-02-28T04:13:56;2.72;;;1.48;;
51738;SDS011;37815;52.692;6.226;2023-02-28T04:18:57;3.10;;;2.20;;
51738;SDS011;37815;52.692;6.226;2023-02-28T04:24:03;2.95;;;1.60;;
51738;SDS011;37815;52.692;6.226;2023-02-28T04:29:06;2.78;;;1.65;;
51738;SDS011;37815;52.692;6.226;2023-02-28T04:34:07;3.67;;;1.75;;
51738;SDS011;37815;52.692;6.226;2023-02-28T04:39:08;3.40;;;1.65;;
51738;SDS011;37815;52.692;6.226;2023-02-28T04:44:09;3.45;;;1.70;;
51738;SDS011;37815;52.692;6.226;2023-02-28T04:49:11;2.53;;;1.65;;
51738;SDS011;37815;52.692;6.226;2023-02-28T04:54:12;3.17;;;1.90;;
51738;SDS011;37815;52.692;6.226;2023-02-28T04:59:13;3.95;;;2.00;;
51738;SDS011;37815;52.692;6.226;2023-02-28T05:04:14;4.20;;;1.77;;
51738;SDS011;37815;52.692;6.226;2023-02-28T05:09:14;3.20;;;2.00;;
51738;SDS011;37815;52.692;6.226;2023-02-28T05:14:15;4.20;;;2.00;;
51738;SDS011;37815;52.692;6.226;2023-02-28T05:19:16;4.43;;;2.08;;
51738;SDS011;37815;52.692;6.226;2023-02-28T05:24:16;5.00;;;2.13;;
51738;SDS011;37815;52.692;6.226;2023-02-28T05:29:22;4.05;;;1.98;;
51738;SDS011;37815;52.692;6.226;2023-02-28T05:34:23;3.60;;;2.05;;
51738;SDS011;37815;52.692;6.226;2023-02-28T05:39:29;3.90;;;1.85;;
51738;SDS011;37815;52.692;6.226;2023-02-28T05:44:29;4.88;;;2.05;;
51738;SDS011;37815;52.692;6.226;2023-02-28T05:49:30;6.20;;;2.28;;
51738;SDS011;37815;52.692;6.226;2023-02-28T05:54:31;4.13;;;2.10;;
51738;SDS011;37815;52.692;6.226;2023-02-28T05:59:31;3.80;;;2.28;;
51738;SDS011;37815;52.692;6.226;2023-02-28T06:04:32;5.47;;;2.78;;
51738;SDS011;37815;52.692;6.226;2023-02-28T06:09:32;4.70;;;2.40;;
51738;SDS011;37815;52.692;6.226;2023-02-28T06:14:33;5.60;;;2.28;;
51738;SDS011;37815;52.692;6.226;2023-02-28T06:19:36;3.40;;;2.30;;
51738;SDS011;37815;52.692;6.226;2023-02-28T06:24:38;4.57;;;2.40;;
51738;SDS011;37815;52.692;6.226;2023-02-28T06:29:39;5.13;;;2.60;;
51738;SDS011;37815;52.692;6.226;2023-02-28T06:34:39;3.58;;;2.30;;
51738;SDS011;37815;52.692;6.226;2023-02-28T06:39:40;4.03;;;2.42;;
51738;SDS011;37815;52.692;6.226;2023-02-28T06:44:41;4.43;;;2.38;;
51738;SDS011;37815;52.692;6.226;2023-02-28T06:49:42;3.90;;;2.33;;
51738;SDS011;37815;52.692;6.226;2023-02-28T06:54:45;3.60;;;2.15;;
51738;SDS011;37815;52.692;6.226;2023-02-28T06:59:45;3.28;;;2.00;;
51738;SDS011;37815;52.692;6.226;2023-02-28T07:04:46;4.05;;;2.30;;
51738;SDS011;37815;52.692;6.226;2023-02-28T07:09:47;5.90;;;2.42;;
51738;SDS011;37815;52.692;6.226;2023-02-28T07:14:48;3.60;;;1.85;;
51738;SDS011;37815;52.692;6.226;2023-02-28T07:19:48;3.67;;;2.05;;
51738;SDS011;37815;52.692;6.226;2023-02-28T07:24:49;3.53;;;2.00;;
51738;SDS011;37815;52.692;6.226;2023-02-28T07:29:50;4.13;;;2.05;;
51738;SDS011;37815;52.692;6.226;2023-02-28T07:34:51;5.50;;;2.50;;
51738;SDS011;37815;52.692;6.226;2023-02-28T07:39:52;3.90;;;2.60;;
51738;SDS011;37815;52.692;6.226;2023-02-28T07:44:53;3.88;;;1.95;;
51738;SDS011;37815;52.692;6.226;2023-02-28T07:49:53;4.10;;;2.38;;
51738;SDS011;37815;52.692;6.226;2023-02-28T07:54:54;7.10;;;2.10;;
51738;SDS011;37815;52.692;6.226;2023-02-28T07:59:54;5.20;;;2.30;;
51738;SDS011;37815;52.692;6.226;2023-02-28T08:04:55;3.88;;;2.10;;
51738;SDS011;37815;52.692;6.226;2023-02-28T08:09:56;4.10;;;2.38;;
51738;SDS011;37815;52.692;6.226;2023-02-28T08:14:57;3.85;;;2.30;;
51738;SDS011;37815;52.692;6.226;2023-02-28T08:19:57;4.20;;;2.40;;
51738;SDS011;37815;52.692;6.226;2023-02-28T08:24:58;3.47;;;2.05;;
51738;SDS011;37815;52.692;6.226;2023-02-28T08:29:58;3.30;;;1.98;;
51738;SDS011;37815;52.692;6.226;2023-02-28T08:34:59;3.25;;;2.10;;
51738;SDS011;37815;52.692;6.226;2023-02-28T08:39:59;2.25;;;1.83;;
51738;SDS011;37815;52.692;6.226;2023-02-28T08:45:00;4.05;;;2.13;;
51738;SDS011;37815;52.692;6.226;2023-02-28T08:50:01;4.20;;;2.00;;
51738;SDS011;37815;52.692;6.226;2023-02-28T08:55:02;2.45;;;1.60;;
51738;SDS011;37815;52.692;6.226;2023-02-28T09:00:03;3.70;;;2.22;;
51738;SDS011;37815;52.692;6.226;2023-02-28T09:05:04;4.28;;;1.70;;
51738;SDS011;37815;52.692;6.226;2023-02-28T09:10:05;4.95;;;1.65;;
51738;SDS011;37815;52.692;6.226;2023-02-28T09:15:06;3.67;;;1.90;;
51738;SDS011;37815;52.692;6.226;2023-02-28T09:20:07;3.90;;;1.80;;
51738;SDS011;37815;52.692;6.226;2023-02-28T09:25:09;2.65;;;1.77;;
51738;SDS011;37815;52.692;6.226;2023-02-28T09:30:09;3.30;;;1.98;;
51738;SDS011;37815;52.692;6.226;2023-02-28T09:35:10;2.45;;;1.98;;
51738;SDS011;37815;52.692;6.226;2023-02-28T09:40:14;2.92;;;1.98;;
51738;SDS011;37815;52.692;6.226;2023-02-28T09:45:24;6.00;;;2.55;;
51738;SDS011;37815;52.692;6.226;2023-02-28T09:55:55;2.00;;;1.60;;
51738;SDS011;37815;52.692;6.226;2023-02-28T10:01:01;3.13;;;2.00;;
51738;SDS011;37815;52.692;6.226;2023-02-28T10:06:12;3.42;;;1.90;;
51738;SDS011;37815;52.692;6.226;2023-02-28T10:11:20;3.08;;;2.10;;
51738;SDS011;37815;52.692;6.226;2023-02-28T10:16:25;2.70;;;1.70;;
51738;SDS011;37815;52.692;6.226;2023-02-28T10:27:06;4.28;;;2.00;;
51738;SDS011;37815;52.692;6.226;2023-02-28T10:32:31;2.92;;;2.00;;
51738;SDS011;37815;52.692;6.226;2023-02-28T10:37:35;4.25;;;1.75;;
51738;SDS011;37815;52.692;6.226;2023-02-28T10:42:38;2.22;;;1.45;;
51738;SDS011;37815;52.692;6.226;2023-02-28T10:53:10;4.30;;;1.98;;
51738;SDS011;37815;52.692;6.226;2023-02-28T10:58:25;3.67;;;1.63;;
51738;SDS011;37815;52.692;6.226;2023-02-28T11:03:34;1.50;;;1.20;;
51738;SDS011;37815;52.692;6.226;2023-02-28T11:08:38;2.17;;;1.30;;
51738;SDS011;37815;52.692;6.226;2023-02-28T11:13:46;2.20;;;1.35;;
51738;SDS011;37815;52.692;6.226;2023-02-28T11:18:50;2.15;;;1.48;;
51738;SDS011;37815;52.692;6.226;2023-02-28T11:24:04;1.95;;;1.50;;
51738;SDS011;37815;52.692;6.226;2023-02-28T11:29:25;2.10;;;1.20;;
51738;SDS011;37815;52.692;6.226;2023-02-28T11:34:26;3.35;;;1.42;;
51738;SDS011;37815;52.692;6.226;2023-02-28T11:39:27;1.50;;;1.20;;
51738;SDS011;37815;52.692;6.226;2023-02-28T11:55:38;2.58;;;1.17;;
51738;SDS011;37815;52.692;6.226;2023-02-28T12:11:53;2.45;;;1.20;;
51738;SDS011;37815;52.692;6.226;2023-02-28T12:27:28;2.73;;;1.40;;
51738;SDS011;37815;52.692;6.226;2023-02-28T12:37:43;1.65;;;1.10;;
51738;SDS011;37815;52.692;6.226;2023-02-28T12:42:50;2.28;;;1.10;;
51738;SDS011;37815;52.692;6.226;2023-02-28T12:48:04;1.75;;;1.00;;
51738;SDS011;37815;52.692;6.226;2023-02-28T12:53:09;1.90;;;1.08;;
51738;SDS011;37815;52.692;6.226;2023-02-28T13:03:39;1.70;;;1.10;;
51738;SDS011;37815;52.692;6.226;2023-02-28T13:14:00;1.67;;;1.00;;
51738;SDS011;37815;52.692;6.226;2023-02-28T13:19:10;1.35;;;0.80;;
51738;SDS011;37815;52.692;6.226;2023-02-28T13:24:11;1.23;;;0.95;;
51738;SDS011;37815;52.692;6.226;2023-02-28T13:29:38;2.08;;;1.20;;
51738;SDS011;37815;52.692;6.226;2023-02-28T13:34:47;0.98;;;0.80;;
51738;SDS011;37815;52.692;6.226;2023-02-28T14:00:59;2.20;;;1.33;;
51738;SDS011;37815;52.692;6.226;2023-02-28T14:11:28;3.35;;;1.50;;
51738;SDS011;37815;52.692;6.226;2023-02-28T14:16:35;5.07;;;2.47;;
51738;SDS011;37815;52.692;6.226;2023-02-28T14:21:52;4.15;;;2.28;;
51738;SDS011;37815;52.692;6.226;2023-02-28T14:37:27;4.72;;;2.38;;
51738;SDS011;37815;52.692;6.226;2023-02-28T14:42:33;4.68;;;2.70;;
51738;SDS011;37815;52.692;6.226;2023-02-28T14:47:35;3.53;;;2.63;;
51738;SDS011;37815;52.692;6.226;2023-02-28T14:52:36;3.72;;;2.20;;
51738;SDS011;37815;52.692;6.226;2023-02-28T14:57:41;2.72;;;2.28;;
51738;SDS011;37815;52.692;6.226;2023-02-28T15:02:51;5.40;;;2.20;;
51738;SDS011;37815;52.692;6.226;2023-02-28T15:08:09;3.65;;;2.20;;
51738;SDS011;37815;52.692;6.226;2023-02-28T15:13:16;3.30;;;2.47;;
51738;SDS011;37815;52.692;6.226;2023-02-28T15:23:41;3.13;;;2.40;;
51738;SDS011;37815;52.692;6.226;2023-02-28T15:28:45;2.75;;;2.30;;
51738;SDS011;37815;52.692;6.226;2023-02-28T15:33:55;3.95;;;2.65;;
51738;SDS011;37815;52.692;6.226;2023-02-28T15:38:57;4.72;;;2.50;;
51738;SDS011;37815;52.692;6.226;2023-02-28T15:49:39;2.85;;;2.35;;
51738;SDS011;37815;52.692;6.226;2023-02-28T15:54:45;3.15;;;2.47;;
51738;SDS011;37815;52.692;6.226;2023-02-28T15:59:51;2.58;;;2.22;;
51738;SDS011;37815;52.692;6.226;2023-02-28T16:05:02;2.40;;;2.13;;
51738;SDS011;37815;52.692;6.226;2023-02-28T16:10:20;3.42;;;2.10;;
51738;SDS011;37815;52.692;6.226;2023-02-28T16:15:26;3.15;;;2.15;;
51738;SDS011;37815;52.692;6.226;2023-02-28T16:20:29;3.28;;;2.03;;
51738;SDS011;37815;52.692;6.226;2023-02-28T16:25:34;4.15;;;2.20;;
51738;SDS011;37815;52.692;6.226;2023-02-28T16:30:37;3.85;;;1.92;;
51738;SDS011;37815;52.692;6.226;2023-02-28T16:35:37;3.80;;;2.10;;
51738;SDS011;37815;52.692;6.226;2023-02-28T16:40:38;3.08;;;1.77;;
51738;SDS011;37815;52.692;6.226;2023-02-28T16:45:38;3.45;;;2.28;;
51738;SDS011;37815;52.692;6.226;2023-02-28T16:50:39;2.97;;;2.22;;
51738;SDS011;37815;52.692;6.226;2023-02-28T16:55:42;7.10;;;2.63;;
51738;SDS011;37815;52.692;6.226;2023-02-28T17:00:43;5.28;;;2.42;;
51738;SDS011;37815;52.692;6.226;2023-02-28T17:05:43;5.32;;;2.30;;
51738;SDS011;37815;52.692;6.226;2023-02-28T17:10:44;3.40;;;2.03;;
51738;SDS011;37815;52.692;6.226;2023-02-28T17:15:45;5.60;;;2.35;;
51738;SDS011;37815;52.692;6.226;2023-02-28T17:20:46;3.90;;;2.30;;
51738;SDS011;37815;52.692;6.226;2023-02-28T17:25:48;4.15;;;2.53;;
51738;SDS011;37815;52.692;6.226;2023-02-28T17:30:53;4.45;;;2.08;;
51738;SDS011;37815;52.692;6.226;2023-02-28T17:35:53;3.42;;;2.10;;
51738;SDS011;37815;52.692;6.226;2023-02-28T17:40:54;4.35;;;2.70;;
51738;SDS011;37815;52.692;6.226;2023-02-28T17:45:57;4.35;;;2.63;;
51738;SDS011;37815;52.692;6.226;2023-02-28T17:50:58;9.77;;;3.80;;
51738;SDS011;37815;52.692;6.226;2023-02-28T17:55:58;6.05;;;3.95;;
51738;SDS011;37815;52.692;6.226;2023-02-28T18:00:59;6.13;;;3.63;;
51738;SDS011;37815;52.692;6.226;2023-02-28T18:05:59;4.55;;;3.25;;
51738;SDS011;37815;52.692;6.226;2023-02-28T18:11:01;4.88;;;3.42;;
51738;SDS011;37815;52.692;6.226;2023-02-28T18:16:02;4.43;;;3.40;;
51738;SDS011;37815;52.692;6.226;2023-02-28T18:21:06;4.47;;;2.65;;
51738;SDS011;37815;52.692;6.226;2023-02-28T18:26:08;5.22;;;3.60;;
51738;SDS011;37815;52.692;6.226;2023-02-28T18:31:10;7.32;;;3.60;;
51738;SDS011;37815;52.692;6.226;2023-02-28T18:36:15;5.63;;;3.38;;
51738;SDS011;37815;52.692;6.226;2023-02-28T18:41:17;5.25;;;3.72;;
51738;SDS011;37815;52.692;6.226;2023-02-28T18:46:22;3.88;;;2.90;;
51738;SDS011;37815;52.692;6.226;2023-02-28T18:51:24;5.35;;;3.42;;
51738;SDS011;37815;52.692;6.226;2023-02-28T18:56:26;6.05;;;3.42;;
51738;SDS011;37815;52.692;6.226;2023-02-28T19:01:27;4.88;;;3.33;;
51738;SDS011;37815;52.692;6.226;2023-02-28T19:06:32;5.32;;;3.58;;
51738;SDS011;37815;52.692;6.226;2023-02-28T19:11:34;5.45;;;3.20;;
51738;SDS011;37815;52.692;6.226;2023-02-28T19:16:35;6.50;;;3.20;;
51738;SDS011;37815;52.692;6.226;2023-02-28T19:21:35;4.00;;;3.10;;
51738;SDS011;37815;52.692;6.226;2023-02-28T19:26:36;4.10;;;3.05;;
51738;SDS011;37815;52.692;6.226;2023-02-28T19:31:36;4.10;;;3.05;;
51738;SDS011;37815;52.692;6.226;2023-02-28T19:36:37;4.25;;;3.28;;
51738;SDS011;37815;52.692;6.226;2023-02-28T19:41:38;4.22;;;3.08;;
51738;SDS011;37815;52.692;6.226;2023-02-28T19:46:38;5.32;;;3.40;;
51738;SDS011;37815;52.692;6.226;2023-02-28T19:51:39;5.10;;;3.50;;
51738;SDS011;37815;52.692;6.226;2023-02-28T19:56:40;5.05;;;3.30;;
51738;SDS011;37815;52.692;6.226;2023-02-28T20:01:41;5.05;;;3.53;;
51738;SDS011;37815;52.692;6.226;2023-02-28T20:06:41;5.25;;;3.70;;
51738;SDS011;37815;52.692;6.226;2023-02-28T20:11:42;6.65;;;3.95;;
51738;SDS011;37815;52.692;6.226;2023-02-28T20:16:43;5.22;;;3.50;;
51738;SDS011;37815;52.692;6.226;2023-02-28T20:21:44;5.68;;;3.75;;
51738;SDS011;37815;52.692;6.226;2023-02-28T20:26:45;7.45;;;4.38;;
51738;SDS011;37815;52.692;6.226;2023-02-28T20:31:46;7.00;;;4.20;;
51738;SDS011;37815;52.692;6.226;2023-02-28T20:36:47;7.72;;;4.22;;
51738;SDS011;37815;52.692;6.226;2023-02-28T20:41:47;5.30;;;3.55;;
51738;SDS011;37815;52.692;6.226;2023-02-28T20:46:48;7.22;;;4.30;;
51738;SDS011;37815;52.692;6.226;2023-02-28T20:51:49;7.07;;;4.13;;
51738;SDS011;37815;52.692;6.226;2023-02-28T20:56:49;7.20;;;4.45;;
51738;SDS011;37815;52.692;6.226;2023-02-28T21:01:50;7.95;;;4.45;;
51738;SDS011;37815;52.692;6.226;2023-02-28T21:06:50;6.40;;;4.28;;
51738;SDS011;37815;52.692;6.226;2023-02-28T21:11:52;6.68;;;4.07;;
51738;SDS011;37815;52.692;6.226;2023-02-28T21:16:53;8.23;;;4.90;;
51738;SDS011;37815;52.692;6.226;2023-02-28T21:21:54;6.80;;;4.03;;
51738;SDS011;37815;52.692;6.226;2023-02-28T21:26:54;6.88;;;4.30;;
51738;SDS011;37815;52.692;6.226;2023-02-28T21:31:56;6.57;;;4.38;;
51738;SDS011;37815;52.692;6.226;2023-02-28T21:36:58;6.97;;;4.30;;
51738;SDS011;37815;52.692;6.226;2023-02-28T21:41:59;6.20;;;4.28;;
51738;SDS011;37815;52.692;6.226;2023-02-28T21:47:02;6.63;;;4.53;;
51738;SDS011;37815;52.692;6.226;2023-02-28T21:52:03;7.13;;;4.30;;
51738;SDS011;37815;52.692;6.226;2023-02-28T21:57:04;7.45;;;5.07;;
51738;SDS011;37815;52.692;6.226;2023-02-28T22:02:05;6.88;;;4.90;;
51738;SDS011;37815;52.692;6.226;2023-02-28T22:07:05;7.75;;;4.88;;
51738;SDS011;37815;52.692;6.226;2023-02-28T22:12:06;6.55;;;4.20;;
51738;SDS011;37815;52.692;6.226;2023-02-28T22:17:07;8.90;;;5.20;;
51738;SDS011;37815;52.692;6.226;2023-02-28T22:22:08;6.95;;;4.63;;
51738;SDS011;37815;52.692;6.226;2023-02-28T22:27:08;7.38;;;4.53;;
51738;SDS011;37815;52.692;6.226;2023-02-28T22:32:09;7.40;;;4.50;;
51738;SDS011;37815;52.692;6.226;2023-02-28T22:37:10;7.75;;;5.18;;
51738;SDS011;37815;52.692;6.226;2023-02-28T22:42:11;8.05;;;5.20;;
51738;SDS011;37815;52.692;6.226;2023-02-28T22:47:11;8.05;;;4.95;;
51738;SDS011;37815;52.692;6.226;2023-02-28T22:52:12;9.68;;;5.32;;
51738;SDS011;37815;52.692;6.226;2023-02-28T22:57:12;8.85;;;5.05;;
51738;SDS011;37815;52.692;6.226;2023-02-28T23:02:13;10.00;;;5.57;;
51738;SDS011;37815;52.692;6.226;2023-02-28T23:07:13;8.95;;;5.25;;
51738;SDS011;37815;52.692;6.226;2023-02-28T23:12:14;9.20;;;4.97;;
51738;SDS011;37815;52.692;6.226;2023-02-28T23:17:15;9.00;;;5.30;;
51738;SDS011;37815;52.692;6.226;2023-02-28T23:22:16;8.57;;;4.70;;
51738;SDS011;37815;52.692;6.226;2023-02-28T23:27:17;8.68;;;5.10;;
51738;SDS011;37815;52.692;6.226;2023-02-28T23:32:17;7.45;;;5.20;;
51738;SDS011;37815;52.692;6.226;2023-02-28T23:37:18;7.20;;;4.85;;
51738;SDS011;37815;52.692;6.226;2023-02-28T23:42:19;9.40;;;5.43;;
51738;SDS011;37815;52.692;6.226;2023-02-28T23:47:20;9.48;;;5.32;;
51738;SDS011;37815;52.692;6.226;2023-02-28T23:52:21;8.20;;;5.43;;
51738;SDS011;37815;52.692;6.226;2023-02-28T23:57:22;8.30;;;4.95;;
